Time,TemperatureF,DewpointF,PressureIn,WindDirection,WindDirectionDegrees,WindSpeedMPH,WindSpeedGustMPH,Humidity,HourlyPrecipIn,Conditions,Clouds,dailyrainin,SolarRadiationWatts/m^2,SoftwareType,DateUTC
2013-02-03 10:35:00,31.7,31.5,30.30,ENE,59,0.0,1.0,99,0.00,,,0.00,81,Wunderground v.1.15,2013-02-03 18:35:00,
2013-02-03 10:40:00,31.8,31.6,30.30,ENE,59,0.0,1.0,99,0.00,,,0.00,100,Wunderground v.1.15,2013-02-03 18:40:00,
2013-02-03 10:45:00,31.9,31.7,30.30,ENE,59,0.0,1.0,99,0.00,,,0.00,109,Wunderground v.1.15,2013-02-03 18:45:00,
2013-02-03 10:50:00,31.9,31.7,30.30,ENE,59,0.0,1.0,99,0.00,,,0.00,116,Wunderground v.1.15,2013-02-03 18:50:00,
2013-02-03 10:55:00,32.1,31.9,30.30,ENE,59,0.0,1.0,99,0.00,,,0.00,91,Wunderground v.1.15,2013-02-03 18:55:00,
2013-02-03 11:00:00,32.2,32.0,30.30,ENE,59,0.0,1.0,99,0.00,,,0.00,105,Wunderground v.1.15,2013-02-03 19:00:00,
2013-02-03 11:10:00,32.3,32.1,30.30,ENE,59,0.0,2.0,99,0.00,,,0.00,135,Wunderground v.1.15,2013-02-03 19:10:00,
2013-02-03 11:15:00,32.4,32.2,30.29,ENE,59,0.0,2.0,99,0.00,,,0.00,148,Wunderground v.1.15,2013-02-03 19:15:00,
2013-02-03 11:20:00,32.5,32.3,30.29,ENE,59,0.0,2.0,99,0.00,,,0.00,156,Wunderground v.1.15,2013-02-03 19:20:00,
2013-02-03 11:25:00,32.7,32.5,30.29,ENE,59,0.0,2.0,99,0.00,,,0.00,183,Wunderground v.1.15,2013-02-03 19:25:00,
2013-02-03 11:30:00,32.9,32.7,30.28,ENE,59,0.0,2.0,99,0.00,,,0.00,190,Wunderground v.1.15,2013-02-03 19:30:00,
2013-02-03 11:35:00,33.0,32.8,30.28,ENE,59,0.0,2.0,99,0.00,,,0.00,120,Wunderground v.1.15,2013-02-03 19:35:00,
2013-02-03 11:40:00,33.4,33.1,30.27,ENE,59,0.0,0.0,99,0.00,,,0.00,116,Wunderground v.1.15,2013-02-03 19:40:00,
2013-02-03 11:45:00,33.6,33.3,30.27,ENE,59,0.0,0.0,99,0.00,,,0.00,148,Wunderground v.1.15,2013-02-03 19:45:00,
2013-02-03 11:50:00,33.7,33.4,30.27,ENE,59,0.0,0.0,99,0.00,,,0.00,102,Wunderground v.1.15,2013-02-03 19:50:00,
2013-02-03 11:55:00,33.9,33.6,30.27,ENE,59,0.0,0.0,99,0.00,,,0.00,128,Wunderground v.1.15,2013-02-03 19:55:00,
2013-02-03 12:00:00,34.1,33.8,30.28,ENE,59,0.0,0.0,99,0.00,,,0.00,109,Wunderground v.1.15,2013-02-03 20:00:00,
2013-02-03 12:05:00,34.1,33.8,30.28,ENE,59,0.0,1.0,99,0.00,,,0.00,97,Wunderground v.1.15,2013-02-03 20:05:00,
2013-02-03 12:10:00,34.1,33.8,30.27,ENE,59,0.0,1.0,99,0.00,,,0.00,121,Wunderground v.1.15,2013-02-03 20:10:00,
2013-02-03 12:15:00,34.0,33.7,30.27,ENE,59,0.0,1.0,99,0.00,,,0.00,141,Wunderground v.1.15,2013-02-03 20:15:00,
2013-02-03 12:20:00,34.0,33.7,30.27,ENE,58,0.0,1.0,99,0.00,,,0.00,169,Wunderground v.1.15,2013-02-03 20:20:00,
2013-02-03 12:25:00,34.0,33.7,30.27,ENE,59,0.0,1.0,99,0.00,,,0.00,141,Wunderground v.1.15,2013-02-03 20:25:00,
2013-02-03 12:30:00,34.1,33.8,30.27,ENE,59,0.0,1.0,99,0.00,,,0.00,111,Wunderground v.1.15,2013-02-03 20:30:00,
2013-02-03 12:35:00,34.4,34.1,30.27,ENE,59,0.0,2.0,99,0.00,,,0.00,155,Wunderground v.1.15,2013-02-03 20:35:00,
2013-02-03 12:45:00,34.6,34.3,30.26,ENE,59,0.0,2.0,99,0.00,,,0.00,111,Wunderground v.1.15,2013-02-03 20:45:00,
2013-02-03 12:50:00,34.6,34.3,30.26,ENE,57,0.0,2.0,99,0.00,,,0.00,123,Wunderground v.1.15,2013-02-03 20:50:00,
2013-02-03 12:55:00,34.6,34.3,30.26,ENE,59,0.0,2.0,99,0.00,,,0.00,118,Wunderground v.1.15,2013-02-03 20:55:00,
2013-02-03 13:00:00,34.6,34.3,30.26,ENE,59,0.0,2.0,99,0.00,,,0.00,120,Wunderground v.1.15,2013-02-03 21:00:00,
2013-02-03 13:05:00,34.6,34.3,30.26,ENE,59,1.0,2.0,99,0.00,,,0.00,93,Wunderground v.1.15,2013-02-03 21:05:00,
2013-02-03 13:10:00,34.4,34.1,30.25,ENE,59,1.0,1.0,99,0.00,,,0.00,128,Wunderground v.1.15,2013-02-03 21:10:00,
2013-02-03 13:15:00,34.3,34.0,30.25,ENE,59,0.0,1.0,99,0.00,,,0.00,113,Wunderground v.1.15,2013-02-03 21:15:00,
2013-02-03 13:20:00,34.3,34.0,30.25,ENE,59,0.0,1.0,99,0.00,,,0.00,95,Wunderground v.1.15,2013-02-03 21:20:00,
2013-02-03 13:25:00,34.3,34.0,30.25,ENE,59,0.0,1.0,99,0.00,,,0.00,109,Wunderground v.1.15,2013-02-03 21:25:00,
2013-02-03 13:30:00,34.4,33.9,30.25,ENE,59,0.0,1.0,98,0.00,,,0.00,125,Wunderground v.1.15,2013-02-03 21:30:00,
2013-02-03 13:35:00,34.4,33.9,30.25,ENE,59,0.0,3.0,98,0.00,,,0.00,113,Wunderground v.1.15,2013-02-03 21:35:00,
2013-02-03 13:45:00,34.6,34.1,30.24,ENE,59,0.0,3.0,98,0.00,,,0.00,104,Wunderground v.1.15,2013-02-03 21:45:00,
2013-02-03 13:50:00,34.6,34.1,30.23,ENE,59,0.0,3.0,98,0.00,,,0.00,125,Wunderground v.1.15,2013-02-03 21:50:00,
2013-02-03 13:55:00,34.7,34.2,30.23,ENE,59,0.0,3.0,98,0.00,,,0.00,90,Wunderground v.1.15,2013-02-03 21:55:00,
2013-02-03 14:00:00,34.8,34.3,30.23,ENE,59,0.0,3.0,98,0.00,,,0.00,74,Wunderground v.1.15,2013-02-03 22:00:00,
2013-02-03 14:05:00,34.8,34.3,30.23,ENE,59,1.0,3.0,98,0.00,,,0.00,102,Wunderground v.1.15,2013-02-03 22:05:00,
2013-02-03 14:10:00,34.9,34.4,30.24,ENE,59,0.0,3.0,98,0.00,,,0.00,102,Wunderground v.1.15,2013-02-03 22:10:00,
2013-02-03 14:20:00,35.2,34.7,30.24,ENE,59,0.0,3.0,98,0.00,,,0.00,81,Wunderground v.1.15,2013-02-03 22:20:00,
2013-02-03 14:25:00,35.1,34.3,30.24,ENE,59,0.0,3.0,97,0.00,,,0.00,69,Wunderground v.1.15,2013-02-03 22:25:00,
2013-02-03 14:30:00,35.2,34.4,30.24,ENE,58,0.0,3.0,97,0.00,,,0.00,67,Wunderground v.1.15,2013-02-03 22:30:00,
2013-02-03 14:35:00,35.3,34.5,30.25,ENE,59,0.0,3.0,97,0.00,,,0.00,67,Wunderground v.1.15,2013-02-03 22:35:00,
2013-02-03 14:40:00,35.6,34.8,30.25,ENE,59,0.0,2.0,97,0.00,,,0.00,70,Wunderground v.1.15,2013-02-03 22:40:00,
2013-02-03 14:45:00,35.5,34.7,30.25,ENE,59,0.0,2.0,97,0.00,,,0.00,67,Wunderground v.1.15,2013-02-03 22:45:00,
2013-02-03 14:50:00,35.3,34.5,30.25,ENE,59,0.0,2.0,97,0.00,,,0.00,63,Wunderground v.1.15,2013-02-03 22:50:00,
2013-02-03 14:55:00,35.3,34.5,30.25,ENE,59,0.0,2.0,97,0.00,,,0.00,70,Wunderground v.1.15,2013-02-03 22:55:00,
2013-02-03 15:00:00,35.3,34.5,30.26,ENE,59,0.0,2.0,97,0.00,,,0.00,70,Wunderground v.1.15,2013-02-03 23:00:00,
2013-02-03 15:05:00,35.3,34.5,30.26,ENE,59,0.0,2.0,97,0.00,,,0.00,56,Wunderground v.1.15,2013-02-03 23:05:00,
2013-02-03 15:10:00,35.2,34.4,30.26,ENE,59,0.0,1.0,97,0.00,,,0.00,33,Wunderground v.1.15,2013-02-03 23:10:00,
2013-02-03 15:20:00,35.1,34.1,30.26,ENE,59,0.0,1.0,96,0.00,,,0.00,37,Wunderground v.1.15,2013-02-03 23:20:00,
2013-02-03 15:25:00,35.1,34.1,30.25,ENE,59,0.0,1.0,96,0.00,,,0.00,19,Wunderground v.1.15,2013-02-03 23:25:00,
2013-02-03 15:30:00,35.0,34.0,30.25,ENE,59,0.0,1.0,96,0.00,,,0.00,21,Wunderground v.1.15,2013-02-03 23:30:00,
2013-02-03 15:35:00,35.0,34.0,30.25,ENE,59,0.0,1.0,96,0.00,,,0.00,18,Wunderground v.1.15,2013-02-03 23:35:00,
2013-02-03 15:40:00,34.9,33.9,30.24,ENE,59,0.0,1.0,96,0.00,,,0.00,19,Wunderground v.1.15,2013-02-03 23:40:00,
2013-02-03 15:45:00,35.0,34.0,30.24,ENE,59,0.0,1.0,96,0.00,,,0.00,21,Wunderground v.1.15,2013-02-03 23:45:00,
2013-02-03 15:55:00,35.0,34.2,30.24,ENE,59,0.0,1.0,97,0.00,,,0.00,23,Wunderground v.1.15,2013-02-03 23:55:00,
2013-02-03 16:00:00,34.9,34.1,30.23,ENE,59,0.0,1.0,97,0.00,,,0.00,14,Wunderground v.1.15,2013-02-04 00:00:00,
2013-02-03 16:05:00,34.8,34.0,30.23,ENE,59,0.0,2.0,97,0.00,,,0.00,11,Wunderground v.1.15,2013-02-04 00:05:00,
2013-02-03 16:10:00,34.8,34.0,30.23,ENE,59,0.0,2.0,97,0.00,,,0.00,11,Wunderground v.1.15,2013-02-04 00:10:00,
2013-02-03 16:15:00,34.7,33.9,30.22,ENE,59,0.0,2.0,97,0.00,,,0.00,11,Wunderground v.1.15,2013-02-04 00:15:00,
2013-02-03 16:20:00,34.8,34.0,30.22,ENE,59,0.0,2.0,97,0.00,,,0.00,7,Wunderground v.1.15,2013-02-04 00:20:00,
2013-02-03 16:25:00,35.0,34.2,30.22,ENE,59,0.0,2.0,97,0.00,,,0.00,9,Wunderground v.1.15,2013-02-04 00:25:00,
2013-02-03 16:30:00,34.9,34.1,30.22,ENE,59,0.0,2.0,97,0.00,,,0.00,7,Wunderground v.1.15,2013-02-04 00:30:00,
2013-02-03 16:35:00,34.9,34.1,30.22,ENE,59,0.0,2.0,97,0.00,,,0.00,5,Wunderground v.1.15,2013-02-04 00:35:00,
2013-02-03 16:40:00,35.0,34.2,30.22,ENE,59,0.0,2.0,97,0.00,,,0.00,0,Wunderground v.1.15,2013-02-04 00:40:00,
2013-02-03 16:45:00,34.9,34.1,30.22,ENE,59,0.0,2.0,97,0.00,,,0.00,0,Wunderground v.1.15,2013-02-04 00:45:00,
2013-02-03 16:55:00,34.7,33.9,30.23,ENE,59,0.0,2.0,97,0.00,,,0.00,0,Wunderground v.1.15,2013-02-04 00:55:00,
2013-02-03 17:00:00,34.6,33.8,30.23,ENE,59,0.0,2.0,97,0.00,,,0.00,0,Wunderground v.1.15,2013-02-04 01:00:00,
2013-02-03 17:05:00,34.5,33.7,30.22,ENE,59,0.0,2.0,97,0.00,,,0.00,0,Wunderground v.1.15,2013-02-04 01:05:00,
2013-02-03 17:10:00,34.4,33.6,30.22,ENE,59,0.0,2.0,97,0.00,,,0.00,0,Wunderground v.1.15,2013-02-04 01:10:00,
2013-02-03 17:15:00,34.4,33.6,30.22,ENE,59,0.0,2.0,97,0.00,,,0.00,0,Wunderground v.1.15,2013-02-04 01:15:00,